createdAt,value
2022-10-18T00:01:10.739Z,14.88
2022-10-18T00:03:38.761Z,14.92
2022-10-18T00:06:08.956Z,14.93
2022-10-18T00:08:36.973Z,14.94
2022-10-18T00:11:06.254Z,14.98
2022-10-18T00:13:33.904Z,15.01
2022-10-18T00:16:04.567Z,15.05
2022-10-18T00:18:32.340Z,15.10
2022-10-18T00:21:01.864Z,15.13
2022-10-18T00:23:30.806Z,15.14
2022-10-18T00:26:03.481Z,15.17
2022-10-18T00:28:32.472Z,15.18
2022-10-18T00:31:11.319Z,15.17
2022-10-18T00:33:38.979Z,15.20
2022-10-18T00:36:07.148Z,15.18
2022-10-18T00:38:34.716Z,15.19
2022-10-18T00:41:02.264Z,15.14
2022-10-18T00:43:29.792Z,15.16
2022-10-18T00:45:58.677Z,15.17
2022-10-18T00:48:26.248Z,15.19
2022-10-18T00:50:54.341Z,15.19
2022-10-18T00:53:23.755Z,15.26
2022-10-18T00:55:51.829Z,15.25
2022-10-18T00:58:20.761Z,15.27
2022-10-18T01:00:48.408Z,15.26
2022-10-18T01:03:17.276Z,15.26
2022-10-18T01:05:47.537Z,15.27
2022-10-18T01:08:30.193Z,15.29
2022-10-18T01:11:10.776Z,15.28
2022-10-18T01:13:52.181Z,15.26
2022-10-18T01:16:27.402Z,15.23
2022-10-18T01:19:05.917Z,15.22
2022-10-18T01:21:44.230Z,15.26
2022-10-18T01:27:43.988Z,15.31
2022-10-18T01:30:41.804Z,15.34
2022-10-18T01:33:18.332Z,15.35
2022-10-18T01:35:50.104Z,15.36
2022-10-18T01:38:20.283Z,15.42
2022-10-18T01:40:51.297Z,15.40
2022-10-18T01:43:21.573Z,15.41
2022-10-18T01:45:51.577Z,15.40
2022-10-18T01:48:20.077Z,15.44
2022-10-18T01:50:47.604Z,15.44
2022-10-18T01:53:32.364Z,15.43
2022-10-18T01:56:17.348Z,15.45
2022-10-18T01:59:06.287Z,15.44
2022-10-18T02:01:45.322Z,15.46
2022-10-18T02:04:24.136Z,15.45
2022-10-18T02:06:58.907Z,15.45
2022-10-18T02:09:39.226Z,15.45
2022-10-18T02:12:11.904Z,15.47
2022-10-18T02:14:40.844Z,15.46
2022-10-18T02:17:13.260Z,15.47
2022-10-18T02:19:44.194Z,15.43
2022-10-18T02:22:13.644Z,15.42
2022-10-18T02:24:45.765Z,15.42
2022-10-18T02:27:13.776Z,15.40
2022-10-18T02:29:42.545Z,15.38
2022-10-18T02:32:19.307Z,15.36
2022-10-18T02:34:50.213Z,15.31
2022-10-18T02:37:18.571Z,15.29
2022-10-18T02:39:48.669Z,15.25
2022-10-18T02:42:16.694Z,15.20
2022-10-18T02:44:44.227Z,15.17
2022-10-18T02:47:13.552Z,15.16
2022-10-18T02:49:41.186Z,15.14
2022-10-18T02:52:08.739Z,15.11
2022-10-18T02:54:36.252Z,15.04
2022-10-18T02:57:03.748Z,15.01
2022-10-18T02:59:31.317Z,15.00
2022-10-18T03:01:58.837Z,14.97
2022-10-18T03:06:56.323Z,14.91
2022-10-18T03:09:23.865Z,14.88
2022-10-18T03:11:51.385Z,14.88
2022-10-18T03:14:18.881Z,14.83
2022-10-18T03:16:46.466Z,14.82
2022-10-18T03:19:14.035Z,14.79
2022-10-18T03:21:42.884Z,14.73
2022-10-18T03:24:10.391Z,14.68
2022-10-18T03:26:37.909Z,14.66
2022-10-18T03:29:05.554Z,14.62
2022-10-18T03:31:33.664Z,14.60
2022-10-18T03:34:01.208Z,14.58
2022-10-18T03:36:28.797Z,14.56
2022-10-18T03:38:57.724Z,14.55
2022-10-18T03:41:25.359Z,14.39
2022-10-18T03:43:52.848Z,14.31
2022-10-18T03:46:20.365Z,14.21
2022-10-18T03:48:47.876Z,14.20
2022-10-18T03:51:15.402Z,14.20
2022-10-18T03:53:42.947Z,14.20
2022-10-18T03:56:11.840Z,14.20
2022-10-18T03:58:39.363Z,14.16
2022-10-18T04:01:07.047Z,14.17
2022-10-18T04:03:34.547Z,14.18
2022-10-18T04:06:03.517Z,14.14
2022-10-18T04:08:31.170Z,14.14
2022-10-18T04:10:58.703Z,14.16
2022-10-18T04:13:27.588Z,14.16
2022-10-18T04:15:55.093Z,14.22
2022-10-18T04:18:22.601Z,14.24
2022-10-18T04:20:50.087Z,14.27
2022-10-18T04:23:17.629Z,14.40
2022-10-18T04:25:45.180Z,14.48
2022-10-18T04:28:12.703Z,14.52
2022-10-18T04:30:41.548Z,14.58
2022-10-18T04:33:09.136Z,14.60
2022-10-18T04:35:37.245Z,14.64
2022-10-18T04:38:04.764Z,14.65
2022-10-18T04:40:32.265Z,14.65
2022-10-18T04:42:59.769Z,14.66
2022-10-18T04:45:27.285Z,14.65
2022-10-18T04:47:56.127Z,14.66
2022-10-18T04:50:23.683Z,14.63
2022-10-18T04:52:53.387Z,14.58
2022-10-18T04:55:21.603Z,14.58
2022-10-18T04:57:49.124Z,14.59
2022-10-18T05:00:16.831Z,14.63
2022-10-18T05:02:44.372Z,14.63
2022-10-18T05:05:14.191Z,14.65
2022-10-18T05:07:42.255Z,14.62
2022-10-18T05:10:10.471Z,14.62
2022-10-18T05:12:38.006Z,14.61
2022-10-18T05:15:06.399Z,14.58
2022-10-18T05:17:33.941Z,14.55
2022-10-18T05:20:01.495Z,14.52
2022-10-18T05:22:30.635Z,14.59
2022-10-18T05:24:58.384Z,14.58
2022-10-18T05:27:25.960Z,14.59
2022-10-18T05:29:53.461Z,14.61
2022-10-18T05:32:21.056Z,14.61
2022-10-18T05:34:48.582Z,14.61
2022-10-18T05:37:16.089Z,14.62
2022-10-18T05:39:44.925Z,14.64
2022-10-18T05:42:12.456Z,14.63
2022-10-18T05:44:40.015Z,14.60
2022-10-18T05:47:07.486Z,14.60
2022-10-18T05:49:35.955Z,14.71
2022-10-18T05:52:03.580Z,14.90
2022-10-18T05:54:31.096Z,14.97
2022-10-18T05:56:59.949Z,15.07
2022-10-18T05:59:27.479Z,15.19
2022-10-18T06:01:54.982Z,15.26
2022-10-18T06:04:22.565Z,15.33
2022-10-18T06:06:50.068Z,15.35
2022-10-18T06:09:17.628Z,15.38
2022-10-18T06:11:45.140Z,15.38
2022-10-18T06:14:14.153Z,15.34
2022-10-18T06:16:41.678Z,15.30
2022-10-18T06:19:09.184Z,15.27
2022-10-18T06:21:36.724Z,15.23
2022-10-18T06:24:04.614Z,15.27
2022-10-18T06:26:32.107Z,15.28
2022-10-18T06:28:59.658Z,15.28
2022-10-18T06:31:28.623Z,15.27
2022-10-18T06:33:57.229Z,15.31
2022-10-18T06:36:25.480Z,15.26
2022-10-18T06:38:53.724Z,15.25
2022-10-18T06:41:22.053Z,15.28
2022-10-18T06:43:50.111Z,15.38
2022-10-18T06:46:18.093Z,15.47
2022-10-18T06:48:47.395Z,15.54
2022-10-18T06:51:15.134Z,15.56
2022-10-18T06:53:59.301Z,15.59
2022-10-18T06:56:31.397Z,15.68
2022-10-18T07:01:31.695Z,15.76
2022-10-18T07:04:00.615Z,15.81
2022-10-18T07:06:28.167Z,15.85
2022-10-18T07:08:56.104Z,15.87
2022-10-18T07:11:26.112Z,15.99
2022-10-18T07:14:00.244Z,15.97
2022-10-18T07:16:27.825Z,15.97
2022-10-18T07:18:55.359Z,15.96
2022-10-18T07:21:25.843Z,15.89
2022-10-18T07:23:54.230Z,15.90
2022-10-18T07:26:23.994Z,15.97
2022-10-18T07:28:55.191Z,16.02
2022-10-18T07:31:24.085Z,15.99
2022-10-18T07:33:51.880Z,16.00
2022-10-18T07:36:21.164Z,16.10
2022-10-18T07:38:51.798Z,16.12
2022-10-18T07:41:20.482Z,16.16
2022-10-18T07:43:50.718Z,16.15
2022-10-18T07:46:19.760Z,16.10
2022-10-18T07:48:47.810Z,16.13
2022-10-18T07:51:15.693Z,16.21
2022-10-18T07:53:43.427Z,16.18
2022-10-18T07:56:16.396Z,16.25
2022-10-18T07:58:44.566Z,16.30
2022-10-18T08:01:12.738Z,16.31
2022-10-18T08:03:40.765Z,16.37
2022-10-18T08:06:10.253Z,16.46
2022-10-18T08:08:39.668Z,16.56
2022-10-18T08:11:09.870Z,16.62
2022-10-18T08:13:38.790Z,16.68
2022-10-18T08:16:08.335Z,16.78
2022-10-18T08:18:36.396Z,17.05
2022-10-18T08:21:06.221Z,17.14
2022-10-18T08:23:35.306Z,17.25
2022-10-18T08:26:03.861Z,17.36
2022-10-18T08:28:31.681Z,17.50
2022-10-18T08:31:04.863Z,17.61
2022-10-18T08:33:32.703Z,17.66
2022-10-18T08:36:02.104Z,17.84
2022-10-18T08:38:31.772Z,18.01
2022-10-18T08:41:01.060Z,18.21
2022-10-18T08:43:37.042Z,18.42
2022-10-18T08:46:06.316Z,18.62
2022-10-18T08:48:39.892Z,18.81
2022-10-18T08:51:18.251Z,19.04
2022-10-18T08:53:57.653Z,19.24
2022-10-18T08:56:28.332Z,19.44
2022-10-18T08:58:56.106Z,19.42
2022-10-18T09:01:39.162Z,19.60
2022-10-18T09:04:35.404Z,19.53
2022-10-18T09:07:22.264Z,19.66
2022-10-18T09:09:56.385Z,19.71
2022-10-18T09:12:48.941Z,19.86
2022-10-18T09:15:22.963Z,20.06
2022-10-18T09:18:04.961Z,20.29
2022-10-18T09:20:40.494Z,20.36
2022-10-18T09:23:19.486Z,20.28
2022-10-18T09:25:49.317Z,20.36
2022-10-18T09:28:25.092Z,20.28
2022-10-18T09:30:59.855Z,20.17
2022-10-18T09:33:49.231Z,20.31
2022-10-18T09:36:21.742Z,20.31
2022-10-18T09:38:56.048Z,20.20
2022-10-18T09:41:29.343Z,20.08
2022-10-18T09:44:01.513Z,20.24
2022-10-18T09:46:33.983Z,20.36
2022-10-18T09:49:06.881Z,20.17
2022-10-18T09:51:37.842Z,20.21
2022-10-18T09:54:21.211Z,20.06
2022-10-18T09:56:52.232Z,20.16
2022-10-18T09:59:34.837Z,20.32
2022-10-18T10:02:02.470Z,20.47
2022-10-18T10:04:31.649Z,20.92
2022-10-18T10:07:02.034Z,20.99
2022-10-18T10:09:31.337Z,20.84
2022-10-18T10:11:59.595Z,20.58
2022-10-18T10:14:30.204Z,20.25
2022-10-18T10:17:02.111Z,20.27
2022-10-18T10:19:33.900Z,20.38
2022-10-18T10:22:06.390Z,20.75
2022-10-18T10:24:47.497Z,20.92
2022-10-18T10:27:21.224Z,21.18
2022-10-18T10:30:00.462Z,20.78
2022-10-18T10:32:39.283Z,20.77
2022-10-18T10:35:33.925Z,20.93
2022-10-18T10:38:03.528Z,20.93
2022-10-18T10:40:32.796Z,20.68
2022-10-18T10:43:18.340Z,21.06
2022-10-18T10:46:02.051Z,21.62
2022-10-18T10:48:33.658Z,21.53
2022-10-18T10:51:09.716Z,21.48
2022-10-18T10:53:46.726Z,21.83
2022-10-18T10:56:22.589Z,21.84
2022-10-18T10:58:51.907Z,21.99
2022-10-18T11:01:26.932Z,22.26
2022-10-18T11:03:57.266Z,22.73
2022-10-18T11:06:51.096Z,22.92
2022-10-18T11:09:45.263Z,23.15
2022-10-18T11:12:28.043Z,23.17
2022-10-18T11:15:11.702Z,22.82
2022-10-18T11:17:42.875Z,22.67
2022-10-18T11:20:22.270Z,22.96
2022-10-18T11:23:00.822Z,23.44
2022-10-18T11:25:41.537Z,23.35
2022-10-18T11:28:18.544Z,23.00
2022-10-18T11:30:59.883Z,22.78
2022-10-18T11:34:07.216Z,22.70
2022-10-18T11:36:33.984Z,22.46
2022-10-18T11:39:16.865Z,22.20
2022-10-18T11:41:52.712Z,22.20
2022-10-18T11:44:28.435Z,22.33
2022-10-18T11:47:05.481Z,22.35
2022-10-18T11:49:45.108Z,22.43
2022-10-18T11:52:20.138Z,22.34
2022-10-18T11:55:05.880Z,22.20
2022-10-18T11:57:43.819Z,21.90
2022-10-18T12:00:33.584Z,21.88
2022-10-18T12:03:31.319Z,21.77
2022-10-18T12:06:04.825Z,21.75
2022-10-18T12:08:36.945Z,22.03
2022-10-18T12:11:13.664Z,22.14
2022-10-18T12:13:46.805Z,22.32
2022-10-18T12:16:15.327Z,22.68
2022-10-18T12:18:50.739Z,23.41
2022-10-18T12:21:25.426Z,23.69
2022-10-18T12:23:57.615Z,24.44
2022-10-18T12:26:29.022Z,24.75
2022-10-18T12:29:09.222Z,25.04
2022-10-18T12:31:41.504Z,25.06
2022-10-18T12:34:26.944Z,25.30
2022-10-18T12:37:21.229Z,25.80
2022-10-18T12:42:45.520Z,26.82
2022-10-18T12:45:25.699Z,26.32
2022-10-18T12:47:54.386Z,26.82
2022-10-18T12:50:30.292Z,27.37
2022-10-18T12:53:18.850Z,27.17
2022-10-18T12:55:49.011Z,26.40
2022-10-18T12:58:27.454Z,25.49
2022-10-18T13:01:03.162Z,25.01
2022-10-18T13:03:53.989Z,24.16
2022-10-18T13:06:22.708Z,23.71
2022-10-18T13:09:17.680Z,23.61
2022-10-18T13:11:46.043Z,23.83
2022-10-18T13:14:48.213Z,23.83
2022-10-18T13:17:33.882Z,23.99
2022-10-18T13:20:28.098Z,23.92
2022-10-18T13:23:18.069Z,23.89
2022-10-18T13:26:02.198Z,23.92
2022-10-18T13:28:40.021Z,23.80
2022-10-18T13:31:24.201Z,23.76
2022-10-18T13:33:52.052Z,23.57
2022-10-18T13:36:24.581Z,23.48
2022-10-18T13:39:05.101Z,23.33
2022-10-18T13:42:14.679Z,23.31
2022-10-18T13:44:44.618Z,23.16
2022-10-18T13:47:15.043Z,23.10
2022-10-18T13:50:16.787Z,23.07
2022-10-18T13:53:13.515Z,23.03
2022-10-18T13:55:56.185Z,22.86
2022-10-18T13:58:41.081Z,22.80
2022-10-18T14:01:25.676Z,22.81
2022-10-18T14:04:38.784Z,22.79
2022-10-18T14:07:08.463Z,22.66
2022-10-18T14:09:45.076Z,22.67
2022-10-18T14:12:23.717Z,22.63
2022-10-18T14:14:58.761Z,22.59
2022-10-18T14:17:34.904Z,22.61
2022-10-18T14:20:15.579Z,22.63
2022-10-18T14:22:48.703Z,22.61
2022-10-18T14:25:22.599Z,22.52
2022-10-18T14:27:53.671Z,22.53
2022-10-18T14:30:23.936Z,22.52
2022-10-18T14:32:54.385Z,22.47
2022-10-18T14:35:32.968Z,22.43
2022-10-18T14:38:01.909Z,22.45
2022-10-18T14:40:37.932Z,22.45
2022-10-18T14:43:11.300Z,22.40
2022-10-18T14:45:40.359Z,22.37
2022-10-18T14:48:14.780Z,22.24
2022-10-18T14:50:44.173Z,22.19
2022-10-18T14:53:17.550Z,22.07
2022-10-18T14:55:53.141Z,22.03
2022-10-18T14:58:21.971Z,21.98
2022-10-18T15:00:51.128Z,21.93
2022-10-18T15:03:19.339Z,21.82
2022-10-18T15:05:55.429Z,21.77
2022-10-18T15:08:25.000Z,21.70
2022-10-18T15:10:53.196Z,21.63
2022-10-18T15:13:20.861Z,21.58
2022-10-18T15:15:48.627Z,21.55
2022-10-18T15:18:22.673Z,21.52
2022-10-18T15:21:20.247Z,21.51
2022-10-18T15:23:47.824Z,21.49
2022-10-18T15:26:21.437Z,21.47
2022-10-18T15:28:53.019Z,21.40
2022-10-18T15:31:26.669Z,21.30
2022-10-18T15:34:08.842Z,21.27
2022-10-18T15:36:37.181Z,21.15
2022-10-18T15:39:07.429Z,21.11
2022-10-18T15:41:44.674Z,21.14
2022-10-18T15:44:26.023Z,21.09
2022-10-18T15:46:56.261Z,21.04
2022-10-18T15:49:51.199Z,20.99
2022-10-18T15:52:36.634Z,20.93
2022-10-18T15:55:39.112Z,20.82
2022-10-18T15:58:12.422Z,20.75
2022-10-18T16:00:39.867Z,20.68
2022-10-18T16:03:08.740Z,20.62
2022-10-18T16:05:38.859Z,20.50
2022-10-18T16:08:06.689Z,20.45
2022-10-18T16:10:34.316Z,20.43
2022-10-18T16:13:01.857Z,20.38
2022-10-18T16:15:29.406Z,20.32
2022-10-18T16:17:56.914Z,20.29
2022-10-18T16:20:26.759Z,20.24
2022-10-18T16:22:55.646Z,20.24
2022-10-18T16:25:23.154Z,20.19
2022-10-18T16:27:50.731Z,20.17
2022-10-18T16:30:20.917Z,20.12
2022-10-18T16:32:48.834Z,20.03
2022-10-18T16:35:16.594Z,20.00
2022-10-18T16:37:44.092Z,19.97
2022-10-18T16:40:23.306Z,19.93
2022-10-18T16:42:50.855Z,19.89
2022-10-18T16:45:19.448Z,19.86
2022-10-18T16:47:47.261Z,19.81
2022-10-18T16:50:17.977Z,19.74
2022-10-18T16:52:48.445Z,19.69
2022-10-18T16:55:21.238Z,19.63
2022-10-18T16:57:51.786Z,19.58
2022-10-18T17:00:21.641Z,19.55
2022-10-18T17:02:50.061Z,19.52
2022-10-18T17:05:19.038Z,19.48
2022-10-18T17:07:47.322Z,19.45
2022-10-18T17:10:16.641Z,19.43
2022-10-18T17:12:44.181Z,19.39
2022-10-18T17:15:13.665Z,19.35
2022-10-18T17:17:41.432Z,19.34
2022-10-18T17:20:10.085Z,19.28
2022-10-18T17:22:37.757Z,19.25
2022-10-18T17:25:05.768Z,19.24
2022-10-18T17:27:33.543Z,19.20
2022-10-18T17:30:01.448Z,19.16
2022-10-18T17:32:30.347Z,19.12
2022-10-18T17:34:58.626Z,19.10
2022-10-18T17:37:26.273Z,19.08
2022-10-18T17:39:53.784Z,19.07
2022-10-18T17:42:21.947Z,19.01
2022-10-18T17:44:51.905Z,19.00
2022-10-18T17:47:20.520Z,18.97
2022-10-18T17:49:49.377Z,18.94
2022-10-18T17:52:16.983Z,18.90
2022-10-18T17:54:44.516Z,18.88
2022-10-18T17:57:12.027Z,18.83
2022-10-18T17:59:39.595Z,18.81
2022-10-18T18:02:07.216Z,18.77
2022-10-18T18:04:34.801Z,18.77
2022-10-18T18:07:04.387Z,18.75
2022-10-18T18:09:32.187Z,18.75
2022-10-18T18:12:00.161Z,18.72
2022-10-18T18:14:27.811Z,18.68
2022-10-18T18:16:55.370Z,18.64
2022-10-18T18:19:23.837Z,18.60
2022-10-18T18:21:53.526Z,18.59
2022-10-18T18:24:24.644Z,18.57
2022-10-18T18:26:53.576Z,18.54
2022-10-18T18:29:21.264Z,18.50
2022-10-18T18:31:49.424Z,18.50
2022-10-18T18:34:17.635Z,18.48
2022-10-18T18:36:45.507Z,18.48
2022-10-18T18:39:20.718Z,18.48
2022-10-18T18:41:51.159Z,18.47
2022-10-18T18:44:20.099Z,18.45
2022-10-18T18:46:48.185Z,18.44
2022-10-18T18:49:15.875Z,18.42
2022-10-18T18:51:43.565Z,18.38
2022-10-18T18:54:13.845Z,18.33
2022-10-18T18:56:42.605Z,18.30
2022-10-18T18:59:13.783Z,18.26
2022-10-18T19:01:42.111Z,18.23
2022-10-18T19:04:11.015Z,18.27
2022-10-18T19:06:41.193Z,18.24
2022-10-18T19:09:13.182Z,18.24
2022-10-18T19:11:40.783Z,18.21
2022-10-18T19:14:09.142Z,18.21
2022-10-18T19:16:39.246Z,18.15
2022-10-18T19:19:08.916Z,18.14
2022-10-18T19:21:38.306Z,18.14
2022-10-18T19:24:06.893Z,18.11
2022-10-18T19:26:37.105Z,18.09
2022-10-18T19:29:09.359Z,18.06
2022-10-18T19:31:39.141Z,18.03
2022-10-18T19:34:08.856Z,18.03
2022-10-18T19:36:36.877Z,18.06
2022-10-18T19:39:05.817Z,18.02
2022-10-18T19:41:33.489Z,18.00
2022-10-18T19:44:01.178Z,18.03
2022-10-18T19:46:29.068Z,18.02
2022-10-18T19:48:58.533Z,18.02
2022-10-18T19:51:28.316Z,18.00
2022-10-18T19:53:57.111Z,17.96
2022-10-18T19:56:26.127Z,17.91
2022-10-18T19:58:54.365Z,17.91
2022-10-18T20:01:22.073Z,17.95
2022-10-18T20:03:49.810Z,17.93
2022-10-18T20:06:19.033Z,17.86
2022-10-18T20:08:46.630Z,17.82
2022-10-18T20:11:17.393Z,17.79
2022-10-18T20:13:44.943Z,17.79
2022-10-18T20:16:20.127Z,17.76
2022-10-18T20:18:49.677Z,17.72
2022-10-18T20:21:18.756Z,17.69
2022-10-18T20:23:46.405Z,17.63
2022-10-18T20:26:19.636Z,17.61
2022-10-18T20:28:55.594Z,17.52
2022-10-18T20:31:24.952Z,17.47
2022-10-18T20:33:55.602Z,17.43
2022-10-18T20:36:24.795Z,17.36
2022-10-18T20:38:53.175Z,17.31
2022-10-18T20:41:22.676Z,17.21
2022-10-18T20:43:53.831Z,17.16
2022-10-18T20:46:21.815Z,17.09
2022-10-18T20:48:50.349Z,17.06
2022-10-18T20:51:18.196Z,17.01
2022-10-18T20:53:47.156Z,16.96
2022-10-18T20:56:16.000Z,16.92
2022-10-18T20:58:45.147Z,16.86
2022-10-18T21:01:15.180Z,16.77
2022-10-18T21:03:45.406Z,16.70
2022-10-18T21:06:14.312Z,16.64
2022-10-18T21:08:42.393Z,16.59
2022-10-18T21:11:11.900Z,16.57
2022-10-18T21:13:40.684Z,16.55
2022-10-18T21:16:08.650Z,16.51
2022-10-18T21:18:37.507Z,16.46
2022-10-18T21:21:09.184Z,16.41
2022-10-18T21:23:36.899Z,16.36
2022-10-18T21:26:05.189Z,16.31
2022-10-18T21:28:34.262Z,16.25
2022-10-18T21:31:14.401Z,16.23
2022-10-18T21:33:42.357Z,16.19
2022-10-18T21:36:10.595Z,16.14
2022-10-18T21:38:38.760Z,16.12
2022-10-18T21:41:09.628Z,16.08
2022-10-18T21:43:40.409Z,16.06
2022-10-18T21:46:08.529Z,16.02
2022-10-18T21:48:36.033Z,15.96
2022-10-18T21:51:04.767Z,15.94
2022-10-18T21:53:32.547Z,15.89
2022-10-18T21:56:05.712Z,15.85
2022-10-18T21:58:33.553Z,15.83
2022-10-18T22:01:02.734Z,15.85
2022-10-18T22:03:30.321Z,15.86
2022-10-18T22:05:59.187Z,15.85
2022-10-18T22:08:26.707Z,15.85
2022-10-18T22:10:54.380Z,15.82
2022-10-18T22:13:21.903Z,15.84
2022-10-18T22:15:49.695Z,15.83
2022-10-18T22:18:19.093Z,15.85
2022-10-18T22:20:54.384Z,15.83
2022-10-18T22:23:22.024Z,15.82
2022-10-18T22:25:49.940Z,15.81
2022-10-18T22:28:17.642Z,15.77
2022-10-18T22:30:45.144Z,15.70
2022-10-18T22:33:12.660Z,15.68
2022-10-18T22:35:41.501Z,15.62
2022-10-18T22:38:09.019Z,15.58
2022-10-18T22:40:36.523Z,15.57
2022-10-18T22:43:04.057Z,15.54
2022-10-18T22:45:31.585Z,15.53
2022-10-18T22:47:59.191Z,15.50
2022-10-18T22:50:26.785Z,15.51
2022-10-18T22:52:55.632Z,15.48
2022-10-18T22:55:23.673Z,15.47
2022-10-18T22:57:51.207Z,15.43
2022-10-18T23:00:18.716Z,15.37
2022-10-18T23:02:46.233Z,15.38
2022-10-18T23:05:13.752Z,15.34
2022-10-18T23:07:41.265Z,15.33
2022-10-18T23:10:10.392Z,15.31
2022-10-18T23:12:37.999Z,15.25
2022-10-18T23:15:06.546Z,15.20
2022-10-18T23:17:34.376Z,15.17
2022-10-18T23:20:02.073Z,15.18
2022-10-18T23:22:29.602Z,15.17
2022-10-18T23:24:57.187Z,15.12
2022-10-18T23:27:26.023Z,15.05
2022-10-18T23:29:53.612Z,15.00
2022-10-18T23:32:21.135Z,14.96
2022-10-18T23:34:48.701Z,14.96
2022-10-18T23:37:16.212Z,14.93
2022-10-18T23:39:43.715Z,14.91
2022-10-18T23:42:11.376Z,14.92
2022-10-18T23:44:40.289Z,14.91
2022-10-18T23:47:07.849Z,14.94
2022-10-18T23:49:35.582Z,14.94
2022-10-18T23:52:03.092Z,14.98
2022-10-18T23:54:30.624Z,15.00
2022-10-18T23:56:58.205Z,15.00
2022-10-18T23:59:25.953Z,15.03
